createdAt,value
2019-03-16T00:00:04.458Z,24.20
2019-03-16T00:03:01.025Z,24.52
2019-03-16T00:05:56.364Z,25.77
2019-03-16T00:08:51.575Z,23.95
2019-03-16T00:11:46.697Z,23.47
2019-03-16T00:14:42.823Z,23.15
2019-03-16T00:17:38.293Z,22.07
2019-03-16T00:20:34.109Z,23.32
2019-03-16T00:23:29.645Z,22.07
2019-03-16T00:26:25.317Z,21.62
2019-03-16T00:29:20.886Z,21.12
2019-03-16T00:32:16.136Z,21.65
2019-03-16T00:35:12.105Z,21.60
2019-03-16T00:38:07.458Z,22.62
2019-03-16T00:41:03.021Z,21.35
2019-03-16T00:43:58.846Z,21.52
2019-03-16T00:46:54.555Z,23.35
2019-03-16T00:49:49.804Z,22.85
2019-03-16T00:52:45.417Z,22.90
2019-03-16T00:55:41.728Z,23.65
2019-03-16T00:58:36.883Z,67.00
2019-03-16T01:01:32.545Z,25.17
2019-03-16T01:04:28.068Z,23.22
2019-03-16T01:07:23.842Z,22.42
2019-03-16T01:10:19.633Z,24.57
2019-03-16T01:13:14.857Z,23.27
2019-03-16T01:16:10.338Z,23.42
2019-03-16T01:19:06.082Z,23.47
2019-03-16T01:22:01.393Z,25.52
2019-03-16T01:24:56.790Z,24.52
2019-03-16T01:27:52.791Z,24.25
2019-03-16T01:30:48.250Z,25.65
2019-03-16T01:33:44.012Z,25.20
2019-03-16T01:36:39.408Z,25.00
2019-03-16T01:39:34.979Z,24.77
2019-03-16T01:42:30.510Z,25.50
2019-03-16T01:45:26.177Z,25.27
2019-03-16T01:48:21.690Z,27.17
2019-03-16T01:51:17.274Z,24.90
2019-03-16T01:54:12.502Z,25.23
2019-03-16T01:57:08.449Z,26.27
2019-03-16T02:00:03.233Z,25.35
2019-03-16T02:02:59.750Z,25.95
2019-03-16T02:05:55.617Z,26.42
2019-03-16T02:08:51.148Z,26.60
2019-03-16T02:11:47.281Z,24.50
2019-03-16T02:14:42.865Z,26.55
2019-03-16T02:17:38.588Z,26.30
2019-03-16T02:20:34.398Z,24.55
2019-03-16T02:23:29.572Z,24.40
2019-03-16T02:26:25.629Z,25.12
2019-03-16T02:29:21.546Z,25.85
2019-03-16T02:32:17.160Z,24.95
2019-03-16T02:35:13.212Z,23.60
2019-03-16T02:38:09.564Z,23.60
2019-03-16T02:41:05.122Z,24.32
2019-03-16T02:44:00.969Z,23.57
2019-03-16T02:46:57.162Z,25.00
2019-03-16T02:49:53.304Z,23.62
2019-03-16T02:52:50.041Z,24.70
2019-03-16T02:55:45.297Z,25.43
2019-03-16T02:58:41.841Z,26.20
2019-03-16T03:01:37.380Z,25.23
2019-03-16T03:04:33.560Z,24.35
2019-03-16T03:07:29.234Z,25.85
2019-03-16T03:10:24.682Z,23.60
2019-03-16T03:13:19.881Z,24.12
2019-03-16T03:16:15.631Z,24.00
2019-03-16T03:19:11.194Z,24.37
2019-03-16T03:22:07.143Z,23.90
2019-03-16T03:25:02.268Z,24.87
2019-03-16T03:27:58.230Z,24.85
2019-03-16T03:30:53.508Z,23.10
2019-03-16T03:34:00.006Z,26.90
2019-03-16T03:36:44.796Z,24.32
2019-03-16T03:43:50.777Z,24.55
2019-03-16T03:46:47.054Z,23.55
2019-03-16T03:49:42.430Z,25.27
2019-03-16T03:52:38.318Z,26.15
2019-03-16T03:55:33.770Z,24.37
2019-03-16T03:58:29.544Z,24.72
2019-03-16T04:01:25.465Z,24.72
2019-03-16T04:04:20.808Z,24.35
2019-03-16T04:07:19.941Z,24.35
2019-03-16T04:10:12.984Z,24.27
2019-03-16T04:13:09.056Z,25.30
2019-03-16T04:16:04.418Z,24.07
2019-03-16T04:19:03.064Z,25.70
2019-03-16T04:22:00.056Z,25.45
2019-03-16T04:24:55.384Z,21.73
2019-03-16T04:27:50.678Z,22.27
2019-03-16T04:30:46.314Z,22.10
2019-03-16T04:33:42.171Z,22.70
2019-03-16T04:36:37.319Z,22.80
2019-03-16T04:39:32.986Z,22.05
2019-03-16T04:42:28.813Z,22.70
2019-03-16T04:45:24.707Z,23.67
2019-03-16T04:48:20.100Z,23.42
2019-03-16T04:51:15.642Z,22.00
2019-03-16T04:54:11.193Z,23.05
2019-03-16T04:57:06.448Z,21.70
2019-03-16T05:00:02.126Z,22.35
2019-03-16T05:02:57.754Z,22.52
2019-03-16T05:05:53.280Z,23.62
2019-03-16T05:08:50.295Z,22.67
2019-03-16T05:11:47.309Z,23.77
2019-03-16T05:14:51.194Z,23.85
2019-03-16T05:17:48.852Z,23.67
2019-03-16T05:20:43.621Z,24.15
2019-03-16T05:23:39.348Z,24.37
2019-03-16T05:26:35.167Z,25.37
2019-03-16T05:29:30.358Z,24.70
2019-03-16T05:32:27.133Z,24.72
2019-03-16T05:35:34.381Z,24.27
2019-03-16T05:38:39.802Z,26.07
2019-03-16T05:41:44.193Z,25.65
2019-03-16T05:44:59.853Z,24.52
2019-03-16T05:48:12.322Z,26.23
2019-03-16T05:51:33.497Z,26.07
2019-03-16T05:54:48.032Z,26.00
2019-03-16T05:57:43.758Z,25.12
2019-03-16T06:00:39.295Z,26.62
2019-03-16T06:03:35.154Z,26.52
2019-03-16T06:06:32.474Z,26.52
2019-03-16T06:09:30.721Z,27.20
2019-03-16T06:12:30.428Z,27.05
2019-03-16T06:15:37.187Z,25.60
2019-03-16T06:19:19.378Z,26.23
2019-03-16T06:22:24.875Z,26.48
2019-03-16T06:25:21.105Z,26.80
2019-03-16T06:28:16.610Z,26.17
2019-03-16T06:31:12.879Z,26.45
2019-03-16T06:34:11.669Z,26.95
2019-03-16T06:37:07.690Z,25.37
2019-03-16T06:40:04.164Z,27.50
2019-03-16T06:42:59.475Z,26.02
2019-03-16T06:45:54.820Z,26.27
2019-03-16T06:48:54.888Z,27.48
2019-03-16T06:51:50.578Z,29.40
2019-03-16T06:54:46.709Z,32.08
2019-03-16T06:57:50.888Z,27.77
2019-03-16T07:00:46.459Z,27.95
2019-03-16T07:03:41.887Z,27.87
2019-03-16T07:06:58.495Z,28.90
2019-03-16T07:10:03.894Z,28.83
2019-03-16T07:12:59.245Z,28.77
2019-03-16T07:16:04.804Z,28.32
2019-03-16T07:19:02.442Z,27.30
2019-03-16T07:22:17.677Z,28.35
2019-03-16T07:25:03.892Z,30.10
2019-03-16T07:28:07.834Z,28.67
2019-03-16T07:31:50.469Z,29.02
2019-03-16T07:35:06.919Z,29.70
2019-03-16T07:38:34.517Z,29.67
2019-03-16T07:41:33.257Z,28.40
2019-03-16T07:44:32.934Z,29.48
2019-03-16T07:47:30.746Z,30.12
2019-03-16T07:50:27.632Z,31.97
2019-03-16T07:53:25.082Z,29.87
2019-03-16T07:56:21.492Z,30.30
2019-03-16T07:59:17.394Z,30.65
2019-03-16T08:02:17.586Z,30.80
2019-03-16T08:05:20.200Z,30.85
2019-03-16T08:08:36.164Z,31.68
2019-03-16T08:11:40.880Z,31.57
2019-03-16T08:14:56.896Z,31.80
2019-03-16T08:17:53.889Z,31.20
2019-03-16T08:20:49.884Z,31.85
2019-03-16T08:23:45.475Z,32.58
2019-03-16T08:26:40.938Z,31.17
2019-03-16T08:29:36.189Z,31.12
2019-03-16T08:32:31.776Z,27.37
2019-03-16T08:35:27.282Z,28.42
2019-03-16T08:38:22.779Z,29.42
2019-03-16T08:41:18.214Z,28.95
2019-03-16T08:44:13.239Z,28.70
2019-03-16T08:47:08.412Z,29.10
2019-03-16T08:50:14.724Z,28.60
2019-03-16T08:53:18.470Z,27.90
2019-03-16T08:56:14.929Z,33.33
2019-03-16T08:59:10.248Z,27.58
2019-03-16T09:02:05.825Z,27.85
2019-03-16T09:05:00.754Z,26.57
2019-03-16T09:07:55.533Z,26.80
2019-03-16T09:10:50.336Z,27.25
2019-03-16T09:13:45.328Z,25.95
2019-03-16T09:16:41.071Z,27.13
2019-03-16T09:19:36.620Z,26.20
2019-03-16T09:22:36.159Z,25.65
2019-03-16T09:25:56.156Z,29.05
2019-03-16T09:29:00.196Z,24.90
2019-03-16T09:31:52.998Z,26.37
2019-03-16T09:34:48.610Z,25.68
2019-03-16T09:37:44.269Z,25.02
2019-03-16T09:40:39.942Z,25.62
2019-03-16T09:43:37.856Z,25.50
2019-03-16T09:46:34.132Z,25.40
2019-03-16T09:49:29.548Z,24.98
2019-03-16T09:52:25.166Z,24.90
2019-03-16T09:55:20.598Z,26.48
2019-03-16T09:58:16.473Z,25.95
2019-03-16T10:01:15.359Z,24.23
2019-03-16T10:04:09.507Z,23.77
2019-03-16T10:07:16.327Z,24.10
2019-03-16T10:10:12.255Z,24.47
2019-03-16T10:13:11.502Z,26.52
2019-03-16T10:16:07.907Z,24.80
2019-03-16T10:19:03.496Z,25.92
2019-03-16T10:21:58.772Z,25.32
2019-03-16T10:24:57.548Z,24.07
2019-03-16T10:27:54.674Z,25.27
2019-03-16T10:30:50.748Z,23.67
2019-03-16T10:33:47.395Z,24.87
2019-03-16T10:36:50.858Z,25.10
2019-03-16T10:40:12.319Z,24.57
2019-03-16T10:43:11.212Z,25.92
2019-03-16T10:46:08.534Z,25.35
2019-03-16T10:49:05.180Z,25.88
2019-03-16T10:52:07.527Z,23.92
2019-03-16T10:55:03.042Z,23.90
2019-03-16T10:58:02.645Z,25.37
2019-03-16T11:00:58.675Z,25.48
2019-03-16T11:03:54.026Z,24.77
2019-03-16T11:06:49.313Z,24.40
2019-03-16T11:09:47.394Z,24.63
2019-03-16T11:12:43.227Z,24.20
2019-03-16T11:15:39.109Z,24.95
2019-03-16T11:18:35.171Z,25.43
2019-03-16T11:21:30.216Z,25.68
2019-03-16T11:24:27.081Z,25.85
2019-03-16T11:27:22.792Z,27.58
2019-03-16T11:30:28.978Z,28.15
2019-03-16T11:33:25.620Z,27.65
2019-03-16T11:36:26.129Z,29.52
2019-03-16T11:39:22.714Z,24.98
2019-03-16T11:42:18.465Z,26.48
2019-03-16T11:45:16.735Z,25.17
2019-03-16T11:48:11.736Z,26.37
2019-03-16T11:51:07.780Z,26.33
2019-03-16T11:54:03.846Z,27.13
2019-03-16T11:56:59.115Z,26.50
2019-03-16T11:59:54.759Z,26.68
2019-03-16T12:02:52.946Z,27.85
2019-03-16T12:05:48.978Z,32.10
2019-03-16T12:08:44.425Z,29.77
2019-03-16T12:11:53.299Z,30.23
2019-03-16T12:15:13.236Z,31.40
2019-03-16T12:18:26.983Z,33.40
2019-03-16T12:21:47.968Z,34.27
2019-03-16T12:24:47.770Z,30.12
2019-03-16T12:27:46.786Z,32.65
2019-03-16T12:30:43.287Z,33.40
2019-03-16T12:33:39.437Z,33.13
2019-03-16T12:36:34.941Z,33.42
2019-03-16T12:39:35.468Z,33.55
2019-03-16T12:42:38.509Z,32.25
2019-03-16T12:45:36.041Z,31.68
2019-03-16T12:48:37.038Z,31.45
2019-03-16T12:51:43.636Z,31.33
2019-03-16T12:54:44.574Z,30.92
2019-03-16T12:57:48.118Z,30.30
2019-03-16T13:00:44.427Z,30.90
2019-03-16T13:03:40.353Z,33.18
2019-03-16T13:06:38.371Z,35.52
2019-03-16T13:09:51.634Z,34.58
2019-03-16T13:12:44.138Z,35.23
2019-03-16T13:15:39.349Z,34.03
2019-03-16T13:18:34.528Z,33.60
2019-03-16T13:21:30.011Z,33.20
2019-03-16T13:24:25.541Z,34.35
2019-03-16T13:27:20.799Z,34.98
2019-03-16T13:30:17.021Z,35.43
2019-03-16T13:33:13.580Z,35.15
2019-03-16T13:36:08.630Z,35.88
2019-03-16T13:39:03.376Z,36.50
2019-03-16T13:41:58.716Z,37.48
2019-03-16T13:44:53.876Z,40.45
2019-03-16T13:47:51.589Z,45.17
2019-03-16T13:50:44.522Z,43.83
2019-03-16T13:53:39.365Z,39.95
2019-03-16T13:56:35.354Z,39.40
2019-03-16T13:59:30.559Z,41.77
2019-03-16T14:05:32.258Z,39.90
2019-03-16T14:08:27.610Z,41.95
2019-03-16T14:11:41.606Z,42.27
2019-03-16T14:15:05.986Z,41.75
2019-03-16T14:18:17.215Z,42.70
2019-03-16T14:21:30.043Z,40.78
2019-03-16T14:24:36.935Z,40.73
2019-03-16T14:27:43.692Z,40.78
2019-03-16T14:30:51.280Z,41.92
2019-03-16T14:34:00.276Z,42.15
2019-03-16T14:37:10.355Z,41.60
2019-03-16T14:40:22.303Z,45.63
2019-03-16T14:43:31.565Z,46.08
2019-03-16T14:46:28.057Z,44.38
2019-03-16T14:49:24.156Z,42.78
2019-03-16T14:52:19.372Z,44.03
2019-03-16T14:55:14.353Z,43.78
2019-03-16T14:58:09.719Z,44.95
2019-03-16T15:01:04.734Z,45.70
2019-03-16T15:04:00.272Z,45.15
2019-03-16T15:06:56.345Z,47.78
2019-03-16T15:09:52.323Z,47.60
2019-03-16T15:12:48.815Z,45.35
2019-03-16T15:15:44.282Z,44.30
2019-03-16T15:18:40.244Z,45.40
2019-03-16T15:21:36.098Z,44.05
2019-03-16T15:24:31.935Z,44.75
2019-03-16T15:27:28.309Z,46.25
2019-03-16T15:30:25.118Z,47.23
2019-03-16T15:33:20.351Z,46.73
2019-03-16T15:36:16.082Z,46.85
2019-03-16T15:39:13.066Z,44.83
2019-03-16T15:42:08.567Z,43.68
2019-03-16T15:45:04.162Z,43.10
2019-03-16T15:47:59.286Z,43.28
2019-03-16T15:50:54.798Z,44.93
2019-03-16T15:53:50.238Z,44.30
2019-03-16T15:56:45.581Z,43.42
2019-03-16T15:59:43.708Z,42.45
2019-03-16T16:02:39.530Z,43.02
2019-03-16T16:05:34.749Z,42.53
2019-03-16T16:08:30.565Z,42.55
2019-03-16T16:11:25.759Z,41.65
2019-03-16T16:14:22.432Z,40.83
2019-03-16T16:17:19.580Z,40.85
2019-03-16T16:20:17.899Z,38.48
2019-03-16T16:23:13.581Z,37.95
2019-03-16T16:26:09.970Z,38.78
2019-03-16T16:29:05.368Z,39.25
2019-03-16T16:32:00.684Z,37.63
2019-03-16T16:34:56.062Z,38.53
2019-03-16T16:37:51.994Z,37.95
2019-03-16T16:40:48.049Z,37.23
2019-03-16T16:43:43.442Z,36.80
2019-03-16T16:46:39.343Z,36.28
2019-03-16T16:49:34.815Z,35.75
2019-03-16T16:52:31.755Z,35.85
2019-03-16T16:55:29.352Z,35.60
2019-03-16T16:58:25.120Z,35.48
2019-03-16T17:01:29.201Z,35.10
2019-03-16T17:04:15.936Z,34.98
2019-03-16T17:07:12.572Z,36.00
2019-03-16T17:10:08.288Z,35.65
2019-03-16T17:13:04.379Z,35.78
2019-03-16T17:15:59.814Z,38.48
2019-03-16T17:18:55.211Z,36.50
2019-03-16T17:21:50.053Z,37.13
2019-03-16T17:24:45.307Z,37.45
2019-03-16T17:27:40.464Z,41.20
2019-03-16T17:30:35.766Z,41.65
2019-03-16T17:33:31.010Z,43.92
2019-03-16T17:36:26.668Z,42.88
2019-03-16T17:39:22.049Z,40.43
2019-03-16T17:42:17.759Z,38.02
2019-03-16T17:45:13.148Z,37.58
2019-03-16T17:48:08.889Z,39.13
2019-03-16T17:51:05.744Z,39.20
2019-03-16T17:54:00.852Z,39.15
2019-03-16T17:56:55.725Z,42.53
2019-03-16T17:59:50.903Z,41.05
2019-03-16T18:02:51.844Z,37.98
2019-03-16T18:05:42.028Z,37.20
2019-03-16T18:08:37.845Z,37.63
2019-03-16T18:11:33.456Z,37.73
2019-03-16T18:14:29.497Z,39.53
2019-03-16T18:17:25.019Z,44.88
2019-03-16T18:20:20.366Z,41.95
2019-03-16T18:23:16.194Z,40.15
2019-03-16T18:26:11.622Z,40.80
2019-03-16T18:29:07.265Z,40.43
2019-03-16T18:32:07.887Z,44.10
2019-03-16T18:34:58.511Z,39.20
2019-03-16T18:37:54.310Z,38.00
2019-03-16T18:40:50.174Z,37.73
2019-03-16T18:43:45.354Z,36.95
2019-03-16T18:46:41.189Z,36.85
2019-03-16T18:49:36.204Z,37.48
2019-03-16T18:52:31.178Z,38.08
2019-03-16T18:55:26.633Z,37.90
2019-03-16T18:58:22.014Z,38.33
2019-03-16T19:01:17.927Z,38.70
2019-03-16T19:04:13.769Z,41.15
2019-03-16T19:07:10.977Z,38.58
2019-03-16T19:10:06.059Z,36.95
2019-03-16T19:13:01.677Z,37.15
2019-03-16T19:15:59.555Z,37.93
2019-03-16T19:18:55.494Z,37.23
2019-03-16T19:21:50.545Z,37.95
2019-03-16T19:24:45.580Z,38.00
2019-03-16T19:27:40.881Z,37.63
2019-03-16T19:30:36.149Z,37.95
2019-03-16T19:33:31.356Z,38.38
2019-03-16T19:36:27.200Z,39.18
2019-03-16T19:39:25.104Z,38.30
2019-03-16T19:42:18.585Z,37.55
2019-03-16T19:45:14.446Z,39.38
2019-03-16T19:48:09.870Z,38.15
2019-03-16T19:51:05.196Z,37.48
2019-03-16T19:54:00.560Z,37.38
2019-03-16T19:56:55.838Z,37.60
2019-03-16T19:59:50.921Z,38.75
2019-03-16T20:02:51.033Z,37.63
2019-03-16T20:05:42.236Z,39.13
2019-03-16T20:08:37.287Z,41.20
2019-03-16T20:11:32.669Z,42.40
2019-03-16T20:14:28.153Z,41.63
2019-03-16T20:17:23.541Z,41.98
2019-03-16T20:20:19.072Z,43.17
2019-03-16T20:23:14.606Z,41.88
2019-03-16T20:26:10.359Z,41.60
2019-03-16T20:29:07.898Z,43.33
2019-03-16T20:32:02.242Z,44.73
2019-03-16T20:34:58.016Z,43.17
2019-03-16T20:37:53.972Z,42.80
2019-03-16T20:40:50.512Z,42.23
2019-03-16T20:43:46.151Z,43.83
2019-03-16T20:46:41.712Z,45.15
2019-03-16T20:49:37.805Z,42.83
2019-03-16T20:52:33.159Z,44.53
2019-03-16T20:55:28.522Z,42.15
2019-03-16T20:58:23.838Z,41.63
2019-03-16T21:01:19.911Z,41.77
2019-03-16T21:04:18.785Z,42.33
2019-03-16T21:07:14.185Z,41.98
2019-03-16T21:10:09.924Z,43.60
2019-03-16T21:13:05.783Z,44.85
2019-03-16T21:16:01.011Z,44.88
2019-03-16T21:18:56.592Z,46.45
2019-03-16T21:21:52.423Z,48.63
2019-03-16T21:24:47.675Z,49.90
2019-03-16T21:27:43.039Z,51.83
2019-03-16T21:30:38.334Z,53.68
2019-03-16T21:33:34.611Z,53.52
2019-03-16T21:36:40.868Z,53.70
2019-03-16T21:39:25.323Z,53.40
2019-03-16T21:42:20.713Z,51.63
2019-03-16T21:45:16.247Z,51.58
2019-03-16T21:48:11.867Z,51.90
2019-03-16T21:51:07.385Z,50.20
2019-03-16T21:54:02.519Z,50.15
2019-03-16T21:56:58.346Z,48.20
2019-03-16T21:59:54.732Z,47.38
2019-03-16T22:02:50.543Z,48.00
2019-03-16T22:05:46.033Z,45.92
2019-03-16T22:08:41.144Z,44.55
2019-03-16T22:11:36.620Z,45.58
2019-03-16T22:14:32.549Z,45.52
2019-03-16T22:17:28.627Z,47.88
2019-03-16T22:20:23.635Z,46.55
2019-03-16T22:23:19.204Z,44.53
2019-03-16T22:26:14.415Z,44.25
2019-03-16T22:29:09.915Z,43.42
2019-03-16T22:32:05.309Z,42.33
2019-03-16T22:35:00.877Z,44.55
2019-03-16T22:37:56.450Z,42.80
2019-03-16T22:40:52.060Z,41.70
2019-03-16T22:43:47.626Z,41.33
2019-03-16T22:46:42.868Z,48.02
2019-03-16T22:49:38.365Z,45.10
2019-03-16T22:52:34.374Z,43.45
2019-03-16T22:55:30.929Z,43.08
2019-03-16T22:58:25.896Z,43.60
2019-03-16T23:01:21.361Z,43.42
2019-03-16T23:04:16.920Z,43.48
2019-03-16T23:07:12.275Z,44.53
2019-03-16T23:10:08.148Z,44.40
2019-03-16T23:13:03.292Z,44.60
2019-03-16T23:15:58.215Z,45.20
2019-03-16T23:18:53.690Z,48.98
2019-03-16T23:21:49.117Z,47.58
2019-03-16T23:24:44.500Z,47.25
2019-03-16T23:27:40.230Z,45.92
2019-03-16T23:30:35.946Z,46.10
2019-03-16T23:33:31.212Z,44.63
2019-03-16T23:36:26.875Z,44.45
2019-03-16T23:39:22.408Z,43.60
2019-03-16T23:42:17.821Z,44.30
2019-03-16T23:45:13.290Z,42.17
2019-03-16T23:48:08.477Z,41.92
2019-03-16T23:51:03.702Z,42.33
2019-03-16T23:53:59.368Z,42.45
2019-03-16T23:56:54.863Z,42.62
2019-03-16T23:59:50.364Z,41.77
